Braunas, Brazil
Current Conditions -  °F | °C
As of 10:50 PM on Tuesday 21 Oct 2014 (Local Time) from SBIP Reporting Station
Light Rain Light Rain  
Wind Chill: 73°   Ceiling: 6000
Heat Index: 73°   Visibility: 3mi
Dew Point: 66°   Wind: 6mph
Humidity: 78%   Direction: 250°WSW
Pressure: 30.06"   Gusts: NA
Location:  19.06°S, 42.72°W
Report Text: SBIP 220050Z 25005KT 5000 -RA SCT020 OVC060 23/19 Q1018
Loading
Personal Weather Stations






























Interactive Weather Map
Tropical Storm Tracking
New forecast layout! Learn more

10-Day Weather Forecast

Advertisements
Track Severe Weather on mobile